Maidstone, Canada
Current Conditions -  °F | °C
As of 12:00 PM on Friday 28 Nov 2014 (Local Time) from CYLL Reporting Station
Light Snow Light Snow  
Wind Chill: -22°   Ceiling: 2000
Heat Index: -4°   Visibility: 1mi
Dew Point: -9°   Wind: 12mph
Humidity: 78%   Direction: 20°NNE
Pressure: 29.72"   Gusts: NA
Location:  53.08°N, 109.3°W
Report Text: CYLL 281800Z 02010KT 1SM -SN DRSN OVC020 M20/M23 A2972 RMK SC8 VIS VRB 3/4-11/4 /S03 AFT 14UTC/ SLP129
Loading
Personal Weather Stations






























Interactive Weather Map New forecast layout! Learn more

10-Day Weather Forecast

Advertisements
Track Severe Weather on mobile